createdAt,value
2018-02-16T00:01:17.940Z,3.50
2018-02-16T00:03:43.886Z,3.70
2018-02-16T00:06:09.824Z,3.30
2018-02-16T00:08:36.463Z,3.50
2018-02-16T00:11:02.605Z,3.50
2018-02-16T00:13:28.568Z,3.60
2018-02-16T00:15:55.283Z,3.60
2018-02-16T00:18:21.218Z,3.50
2018-02-16T00:20:47.126Z,3.60
2018-02-16T00:23:13.275Z,3.60
2018-02-16T00:25:39.249Z,3.60
2018-02-16T00:28:05.200Z,3.70
2018-02-16T00:30:31.138Z,3.60
2018-02-16T00:32:57.851Z,3.60
2018-02-16T00:35:23.784Z,3.50
2018-02-16T00:37:49.729Z,3.60
2018-02-16T00:40:15.649Z,3.60
2018-02-16T00:42:41.627Z,3.60
2018-02-16T00:45:07.563Z,3.60
2018-02-16T00:47:33.554Z,3.60
2018-02-16T00:49:59.479Z,3.60
2018-02-16T00:52:25.455Z,3.60
2018-02-16T00:54:52.139Z,3.60
2018-02-16T00:57:18.058Z,3.60
2018-02-16T00:59:43.990Z,3.60
2018-02-16T01:02:09.933Z,3.70
2018-02-16T01:04:36.646Z,3.70
2018-02-16T01:07:02.792Z,3.60
2018-02-16T01:09:28.798Z,3.70
2018-02-16T01:11:55.307Z,3.70
2018-02-16T01:14:21.340Z,3.80
2018-02-16T01:16:47.302Z,3.60
2018-02-16T01:19:13.227Z,3.70
2018-02-16T01:21:39.962Z,3.70
2018-02-16T01:24:06.702Z,3.70
2018-02-16T01:26:32.625Z,3.60
2018-02-16T01:28:58.600Z,3.70
2018-02-16T01:31:24.541Z,3.70
2018-02-16T01:33:50.453Z,3.60
2018-02-16T01:36:16.479Z,3.50
2018-02-16T01:38:42.531Z,3.50
2018-02-16T01:41:09.237Z,3.50
2018-02-16T01:43:35.177Z,3.40
2018-02-16T01:46:01.156Z,3.40
2018-02-16T01:48:27.099Z,3.40
2018-02-16T01:50:53.030Z,3.50
2018-02-16T01:53:19.616Z,3.40
2018-02-16T01:55:45.549Z,3.40
2018-02-16T01:58:11.463Z,3.40
2018-02-16T02:00:37.420Z,3.40
2018-02-16T02:03:03.529Z,3.40
2018-02-16T02:05:29.469Z,3.30
2018-02-16T02:07:55.431Z,3.30
2018-02-16T02:10:21.453Z,3.30
2018-02-16T02:12:48.467Z,3.30
2018-02-16T02:15:14.447Z,3.20
2018-02-16T02:17:41.177Z,3.20
2018-02-16T02:20:07.158Z,3.30
2018-02-16T02:22:33.116Z,3.20
2018-02-16T02:24:59.298Z,3.20
2018-02-16T02:27:25.269Z,3.30
2018-02-16T02:29:51.177Z,3.20
2018-02-16T02:32:17.273Z,3.30
2018-02-16T02:34:44.176Z,3.30
2018-02-16T02:37:10.150Z,3.20
2018-02-16T02:39:36.122Z,3.40
2018-02-16T02:42:04.312Z,3.50
2018-02-16T02:44:30.848Z,3.50
2018-02-16T02:46:56.818Z,3.50
2018-02-16T02:49:22.743Z,3.50
2018-02-16T02:51:48.653Z,3.50
2018-02-16T02:54:14.581Z,3.40
2018-02-16T02:56:40.501Z,3.40
2018-02-16T02:59:06.473Z,3.40
2018-02-16T03:01:32.410Z,3.40
2018-02-16T03:03:58.342Z,3.40
2018-02-16T03:06:31.405Z,3.40
2018-02-16T03:08:57.342Z,3.40
2018-02-16T03:11:23.258Z,3.40
2018-02-16T03:13:49.184Z,3.40
2018-02-16T03:16:15.105Z,3.40
2018-02-16T03:18:41.038Z,3.50
2018-02-16T03:21:06.943Z,3.40
2018-02-16T03:23:32.899Z,3.50
2018-02-16T03:25:58.863Z,3.50
2018-02-16T03:28:24.815Z,3.40
2018-02-16T03:30:50.730Z,3.40
2018-02-16T03:33:17.373Z,3.30
2018-02-16T03:35:44.071Z,3.30
2018-02-16T03:38:10.031Z,3.30
2018-02-16T03:40:37.170Z,3.30
2018-02-16T03:43:03.850Z,3.50
2018-02-16T03:45:29.780Z,3.40
2018-02-16T03:47:55.690Z,3.30
2018-02-16T03:50:21.600Z,3.20
2018-02-16T03:52:47.521Z,3.20
2018-02-16T03:55:13.442Z,3.20
2018-02-16T03:57:39.377Z,3.00
2018-02-16T04:00:05.284Z,3.10
2018-02-16T04:02:31.219Z,3.00
2018-02-16T04:04:57.135Z,3.00
2018-02-16T04:07:23.042Z,3.00
2018-02-16T04:09:48.956Z,3.00
2018-02-16T04:12:14.897Z,3.00
2018-02-16T04:14:41.591Z,3.00
2018-02-16T04:17:07.560Z,3.00
2018-02-16T04:19:33.511Z,3.00
2018-02-16T04:21:59.451Z,2.90
2018-02-16T04:24:25.419Z,3.00
2018-02-16T04:26:51.341Z,3.00
2018-02-16T04:29:17.248Z,3.00
2018-02-16T04:31:43.192Z,3.00
2018-02-16T04:34:09.152Z,3.10
2018-02-16T04:36:35.064Z,3.00
2018-02-16T04:39:01.033Z,3.10
2018-02-16T04:41:27.030Z,3.10
2018-02-16T04:43:52.955Z,3.00
2018-02-16T04:46:19.635Z,3.00
2018-02-16T04:48:45.560Z,3.00
2018-02-16T04:51:11.475Z,3.10
2018-02-16T04:53:37.445Z,3.10
2018-02-16T04:56:03.375Z,3.10
2018-02-16T04:58:30.040Z,3.20
2018-02-16T05:00:56.737Z,3.10
2018-02-16T05:03:22.681Z,3.10
2018-02-16T05:05:49.372Z,3.00
2018-02-16T05:08:15.340Z,3.00
2018-02-16T05:10:41.279Z,3.00
2018-02-16T05:13:07.199Z,3.00
2018-02-16T05:15:33.119Z,3.00
2018-02-16T05:17:59.042Z,3.10
2018-02-16T05:20:24.981Z,2.90
2018-02-16T05:22:50.934Z,2.80
2018-02-16T05:25:16.889Z,2.70
2018-02-16T05:27:43.612Z,2.70
2018-02-16T05:30:10.279Z,2.70
2018-02-16T05:32:36.198Z,2.70
2018-02-16T05:35:02.256Z,2.70
2018-02-16T05:37:28.251Z,2.80
2018-02-16T05:39:54.413Z,2.90
2018-02-16T05:42:20.419Z,2.90
2018-02-16T05:44:46.355Z,3.00
2018-02-16T05:47:12.282Z,3.00
2018-02-16T05:49:38.221Z,3.00
2018-02-16T05:52:04.893Z,2.90
2018-02-16T05:54:30.830Z,2.90
2018-02-16T05:56:56.768Z,2.90
2018-02-16T05:59:22.721Z,2.90
2018-02-16T06:01:49.421Z,2.90
2018-02-16T06:04:15.418Z,2.90
2018-02-16T06:06:41.339Z,2.90
2018-02-16T06:09:07.357Z,2.90
2018-02-16T06:11:33.288Z,2.90
2018-02-16T06:13:59.291Z,2.90
2018-02-16T06:16:25.211Z,2.90
2018-02-16T06:18:51.167Z,2.80
2018-02-16T06:21:17.130Z,2.90
2018-02-16T06:23:43.132Z,2.90
2018-02-16T06:26:09.095Z,2.90
2018-02-16T06:28:35.044Z,2.80
2018-02-16T06:31:01.083Z,2.90
2018-02-16T06:33:26.958Z,2.90
2018-02-16T06:35:52.957Z,2.90
2018-02-16T06:38:19.723Z,2.90
2018-02-16T06:40:45.806Z,2.90
2018-02-16T06:43:11.725Z,2.90
2018-02-16T06:45:37.686Z,3.10
2018-02-16T06:48:04.376Z,3.00
2018-02-16T06:50:30.351Z,2.90
2018-02-16T06:52:56.318Z,2.90
2018-02-16T06:55:22.303Z,2.80
2018-02-16T06:57:48.379Z,2.80
2018-02-16T07:00:14.354Z,2.90
2018-02-16T07:02:40.286Z,2.90
2018-02-16T07:05:06.250Z,2.70
2018-02-16T07:07:32.178Z,2.80
2018-02-16T07:09:58.138Z,2.80
2018-02-16T07:12:24.086Z,2.80
2018-02-16T07:14:50.111Z,2.80
2018-02-16T07:17:16.105Z,2.80
2018-02-16T07:19:42.073Z,2.70
2018-02-16T07:22:08.012Z,2.90
2018-02-16T07:24:34.659Z,2.90
2018-02-16T07:27:00.618Z,2.80
2018-02-16T07:29:26.589Z,3.10
2018-02-16T07:31:52.560Z,2.90
2018-02-16T07:34:19.338Z,3.00
2018-02-16T07:36:45.310Z,2.90
2018-02-16T07:39:11.282Z,3.00
2018-02-16T07:41:40.577Z,2.90
2018-02-16T07:44:07.266Z,2.80
2018-02-16T07:46:33.164Z,2.80
2018-02-16T07:48:59.113Z,2.90
2018-02-16T07:51:25.288Z,2.80
2018-02-16T07:53:51.262Z,2.90
2018-02-16T07:56:18.103Z,2.90
2018-02-16T07:58:44.239Z,3.00
2018-02-16T08:01:10.204Z,3.00
2018-02-16T08:03:36.950Z,3.10
2018-02-16T08:06:02.943Z,3.00
2018-02-16T08:08:30.252Z,3.10
2018-02-16T08:10:56.213Z,3.00
2018-02-16T08:13:22.164Z,3.10
2018-02-16T08:15:48.830Z,3.20
2018-02-16T08:18:14.767Z,3.20
2018-02-16T08:20:40.691Z,3.20
2018-02-16T08:23:06.666Z,3.20
2018-02-16T08:25:32.691Z,3.10
2018-02-16T08:27:58.620Z,3.20
2018-02-16T08:30:25.302Z,3.20
2018-02-16T08:32:51.265Z,3.20
2018-02-16T08:35:18.203Z,3.30
2018-02-16T08:37:44.924Z,3.30
2018-02-16T08:40:10.906Z,3.10
2018-02-16T08:42:36.924Z,3.30
2018-02-16T08:45:02.932Z,3.10
2018-02-16T08:47:29.004Z,3.20
2018-02-16T08:49:55.014Z,3.20
2018-02-16T08:52:21.877Z,3.20
2018-02-16T08:54:47.865Z,3.10
2018-02-16T08:57:13.823Z,3.20
2018-02-16T08:59:39.760Z,3.20
2018-02-16T09:02:05.703Z,3.30
2018-02-16T09:04:31.700Z,3.40
2018-02-16T09:06:58.387Z,3.50
2018-02-16T09:09:24.707Z,3.50
2018-02-16T09:11:50.674Z,3.60
2018-02-16T09:14:16.785Z,3.80
2018-02-16T09:16:42.723Z,3.90
2018-02-16T09:19:14.090Z,4.00
2018-02-16T09:21:40.135Z,4.20
2018-02-16T09:24:06.188Z,4.20
2018-02-16T09:26:32.188Z,4.30
2018-02-16T09:28:58.123Z,4.30
2018-02-16T09:31:24.825Z,4.40
2018-02-16T09:33:50.822Z,4.20
2018-02-16T09:36:17.310Z,4.20
2018-02-16T09:38:46.894Z,4.10
2018-02-16T09:41:12.815Z,4.20
2018-02-16T09:43:39.656Z,4.20
2018-02-16T09:46:05.669Z,4.20
2018-02-16T09:48:32.487Z,4.10
2018-02-16T09:50:58.501Z,4.00
2018-02-16T09:53:24.524Z,4.00
2018-02-16T09:55:50.538Z,4.10
2018-02-16T09:58:16.558Z,4.10
2018-02-16T10:00:42.552Z,4.00
2018-02-16T10:03:09.262Z,4.00
2018-02-16T10:05:35.292Z,4.00
2018-02-16T10:08:01.394Z,4.00
2018-02-16T10:10:28.124Z,4.00
2018-02-16T10:12:54.149Z,4.00
2018-02-16T10:15:20.883Z,4.00
2018-02-16T10:17:46.865Z,4.00
2018-02-16T10:20:12.855Z,4.00
2018-02-16T10:22:39.612Z,4.20
2018-02-16T10:25:05.618Z,4.10
2018-02-16T10:27:31.614Z,4.20
2018-02-16T10:29:57.660Z,4.20
2018-02-16T10:32:24.414Z,4.30
2018-02-16T10:34:50.544Z,4.20
2018-02-16T10:37:16.641Z,4.30
2018-02-16T10:39:43.028Z,4.20
2018-02-16T10:42:09.030Z,4.00
2018-02-16T10:44:37.315Z,3.50
2018-02-16T10:47:03.895Z,3.50
2018-02-16T10:49:30.867Z,3.80
2018-02-16T10:51:57.275Z,3.70
2018-02-16T10:54:24.051Z,4.00
2018-02-16T10:56:50.115Z,3.90
2018-02-16T10:59:16.171Z,4.10
2018-02-16T11:01:43.040Z,4.10
2018-02-16T11:04:15.273Z,4.10
2018-02-16T11:06:47.374Z,4.30
2018-02-16T11:09:19.448Z,4.40
2018-02-16T11:11:45.426Z,4.50
2018-02-16T11:14:11.384Z,4.70
2018-02-16T11:16:37.330Z,4.70
2018-02-16T11:19:03.445Z,4.70
2018-02-16T11:21:29.415Z,4.60
2018-02-16T11:23:55.552Z,4.70
2018-02-16T11:26:22.435Z,4.90
2018-02-16T11:28:48.479Z,4.90
2018-02-16T11:31:14.500Z,4.90
2018-02-16T11:33:40.454Z,5.10
2018-02-16T11:36:06.426Z,5.10
2018-02-16T11:38:32.411Z,5.20
2018-02-16T11:40:58.402Z,5.40
2018-02-16T11:43:24.443Z,5.50
2018-02-16T11:45:51.138Z,5.60
2018-02-16T11:48:17.109Z,5.60
2018-02-16T11:50:43.779Z,5.60
2018-02-16T11:53:09.831Z,5.60
2018-02-16T11:55:35.795Z,5.80
2018-02-16T11:58:01.773Z,5.70
2018-02-16T12:00:27.746Z,5.70
2018-02-16T12:02:53.747Z,5.70
2018-02-16T12:05:19.832Z,5.90
2018-02-16T12:07:45.805Z,6.30
2018-02-16T12:10:12.514Z,6.70
2018-02-16T12:12:38.476Z,6.60
2018-02-16T12:15:04.637Z,7.10
2018-02-16T12:17:30.570Z,7.50
2018-02-16T12:19:56.539Z,7.80
2018-02-16T12:22:22.553Z,8.10
2018-02-16T12:24:48.513Z,8.30
2018-02-16T12:27:14.445Z,8.40
2018-02-16T12:29:40.414Z,8.60
2018-02-16T12:32:06.554Z,8.90
2018-02-16T12:34:33.274Z,9.00
2018-02-16T12:36:59.231Z,9.00
2018-02-16T12:39:25.249Z,9.10
2018-02-16T12:41:51.247Z,9.10
2018-02-16T12:44:18.014Z,8.60
2018-02-16T12:46:43.990Z,8.60
2018-02-16T12:49:09.953Z,8.40
2018-02-16T12:51:35.905Z,8.30
2018-02-16T12:54:01.838Z,8.30
2018-02-16T12:56:27.798Z,8.30
2018-02-16T12:58:53.804Z,8.20
2018-02-16T13:01:19.805Z,8.00
2018-02-16T13:03:45.810Z,8.00
2018-02-16T13:06:11.810Z,8.10
2018-02-16T13:08:37.749Z,7.90
2018-02-16T13:11:04.569Z,8.00
2018-02-16T13:13:30.502Z,8.50
2018-02-16T13:15:56.436Z,8.80
2018-02-16T13:18:22.364Z,9.30
2018-02-16T13:20:48.295Z,9.60
2018-02-16T13:23:14.230Z,9.70
2018-02-16T13:25:40.163Z,9.90
2018-02-16T13:28:06.854Z,10.40
2018-02-16T13:30:32.798Z,10.30
2018-02-16T13:32:58.766Z,10.40
2018-02-16T13:35:25.765Z,10.30
2018-02-16T13:37:51.754Z,10.60
2018-02-16T13:40:17.720Z,10.90
2018-02-16T13:42:43.675Z,11.10
2018-02-16T13:45:09.651Z,11.20
2018-02-16T13:47:35.648Z,11.40
2018-02-16T13:50:01.745Z,11.00
2018-02-16T13:52:27.749Z,10.60
2018-02-16T13:54:54.487Z,9.90
2018-02-16T13:57:20.849Z,9.80
2018-02-16T13:59:46.944Z,10.20
2018-02-16T14:02:12.965Z,10.70
2018-02-16T14:04:38.964Z,11.20
2018-02-16T14:07:04.960Z,11.40
2018-02-16T14:09:31.125Z,11.50
2018-02-16T14:11:57.255Z,11.70
2018-02-16T14:14:24.959Z,12.20
2018-02-16T14:16:50.993Z,12.10
2018-02-16T14:19:17.017Z,11.70
2018-02-16T14:21:43.034Z,11.20
2018-02-16T14:24:09.035Z,11.30
2018-02-16T14:26:35.043Z,11.60
2018-02-16T14:29:01.979Z,12.40
2018-02-16T14:31:28.566Z,12.40
2018-02-16T14:33:54.608Z,11.90
2018-02-16T14:36:20.635Z,11.60
2018-02-16T14:38:46.647Z,11.50
2018-02-16T14:41:12.656Z,11.00
2018-02-16T14:43:38.616Z,10.40
2018-02-16T14:46:04.545Z,9.90
2018-02-16T14:48:31.234Z,9.80
2018-02-16T14:50:57.228Z,9.80
2018-02-16T14:53:23.136Z,9.80
2018-02-16T14:55:49.830Z,9.40
2018-02-16T14:58:15.867Z,9.30
2018-02-16T15:00:41.822Z,9.50
2018-02-16T15:03:07.805Z,10.00
2018-02-16T15:05:33.850Z,10.00
2018-02-16T15:07:59.881Z,10.10
2018-02-16T15:10:25.917Z,10.00
2018-02-16T15:12:52.846Z,9.90
2018-02-16T15:15:18.809Z,9.90
2018-02-16T15:17:44.872Z,9.80
2018-02-16T15:20:10.897Z,9.60
2018-02-16T15:22:37.803Z,9.30
2018-02-16T15:25:04.581Z,9.20
2018-02-16T15:27:31.018Z,9.00
2018-02-16T15:29:57.135Z,8.90
2018-02-16T15:32:23.152Z,8.80
2018-02-16T15:34:49.222Z,8.70
2018-02-16T15:37:15.186Z,8.60
2018-02-16T15:39:41.132Z,8.50
2018-02-16T15:42:07.234Z,8.40
2018-02-16T15:44:33.196Z,8.40
2018-02-16T15:46:59.170Z,8.40
2018-02-16T15:49:25.125Z,8.70
2018-02-16T15:51:51.052Z,9.00
2018-02-16T15:54:17.805Z,9.30
2018-02-16T15:56:44.007Z,9.30
2018-02-16T15:59:10.012Z,9.10
2018-02-16T16:01:36.158Z,8.90
2018-02-16T16:04:04.127Z,9.00
2018-02-16T16:06:30.897Z,9.00
2018-02-16T16:08:56.998Z,9.00
2018-02-16T16:11:24.698Z,8.70
2018-02-16T16:13:51.764Z,8.70
2018-02-16T16:16:17.766Z,8.60
2018-02-16T16:18:43.765Z,8.60
2018-02-16T16:21:09.747Z,8.50
2018-02-16T16:23:35.919Z,8.50
2018-02-16T16:26:01.937Z,8.60
2018-02-16T16:28:27.875Z,8.90
2018-02-16T16:30:53.836Z,9.20
2018-02-16T16:33:19.797Z,9.20
2018-02-16T16:35:45.790Z,9.20
2018-02-16T16:38:11.728Z,9.00
2018-02-16T16:40:37.651Z,8.70
2018-02-16T16:43:03.623Z,8.70
2018-02-16T16:45:30.248Z,8.50
2018-02-16T16:47:56.261Z,8.20
2018-02-16T16:50:22.186Z,8.00
2018-02-16T16:52:48.176Z,7.80
2018-02-16T16:55:14.138Z,7.60
2018-02-16T16:57:40.078Z,7.40
2018-02-16T17:00:06.034Z,7.20
2018-02-16T17:02:32.766Z,7.00
2018-02-16T17:04:58.738Z,6.90
2018-02-16T17:07:24.775Z,6.80
2018-02-16T17:09:50.730Z,6.80
2018-02-16T17:12:16.787Z,6.70
2018-02-16T17:14:42.746Z,6.60
2018-02-16T17:17:08.733Z,6.50
2018-02-16T17:19:34.657Z,6.50
2018-02-16T17:22:00.617Z,6.40
2018-02-16T17:24:26.566Z,6.40
2018-02-16T17:26:52.513Z,6.30
2018-02-16T17:29:18.432Z,6.40
2018-02-16T17:31:44.392Z,6.30
2018-02-16T17:34:10.356Z,6.40
2018-02-16T17:36:36.332Z,6.40
2018-02-16T17:39:02.808Z,6.40
2018-02-16T17:41:29.411Z,6.30
2018-02-16T17:43:55.432Z,6.20
2018-02-16T17:46:21.943Z,6.20
2018-02-16T17:48:47.902Z,6.10
2018-02-16T17:51:13.818Z,6.10
2018-02-16T17:53:39.925Z,6.00
2018-02-16T17:56:05.942Z,6.00
2018-02-16T17:58:31.867Z,5.90
2018-02-16T18:00:58.055Z,5.90
2018-02-16T18:03:23.995Z,5.90
2018-02-16T18:05:50.006Z,5.70
2018-02-16T18:08:15.935Z,5.70
2018-02-16T18:10:41.901Z,5.60
2018-02-16T18:13:07.886Z,5.60
2018-02-16T18:15:33.963Z,5.50
2018-02-16T18:17:59.956Z,5.60
2018-02-16T18:20:25.971Z,5.60
2018-02-16T18:22:52.875Z,5.50
2018-02-16T18:25:18.975Z,5.40
2018-02-16T18:27:45.721Z,5.40
2018-02-16T18:30:11.734Z,5.40
2018-02-16T18:32:37.894Z,5.40
2018-02-16T18:35:03.918Z,5.40
2018-02-16T18:37:30.067Z,5.30
2018-02-16T18:39:56.115Z,5.20
2018-02-16T18:42:22.354Z,5.20
2018-02-16T18:44:48.272Z,5.20
2018-02-16T18:47:14.198Z,5.30
2018-02-16T18:49:40.190Z,5.30
2018-02-16T18:52:06.164Z,5.30
2018-02-16T18:54:32.822Z,5.20
2018-02-16T18:56:58.766Z,5.10
2018-02-16T18:59:24.774Z,5.20
2018-02-16T19:01:50.732Z,5.20
2018-02-16T19:04:16.673Z,5.10
2018-02-16T19:06:43.361Z,5.00
2018-02-16T19:09:09.299Z,5.00
2018-02-16T19:11:35.222Z,5.00
2018-02-16T19:14:01.204Z,5.00
2018-02-16T19:16:27.218Z,5.00
2018-02-16T19:18:54.572Z,4.80
2018-02-16T19:21:20.527Z,4.80
2018-02-16T19:23:46.541Z,4.80
2018-02-16T19:26:12.635Z,4.80
2018-02-16T19:28:38.768Z,4.70
2018-02-16T19:31:05.297Z,4.60
2018-02-16T19:33:31.305Z,4.60
2018-02-16T19:35:58.617Z,4.50
2018-02-16T19:38:24.670Z,4.50
2018-02-16T19:40:50.619Z,4.50
2018-02-16T19:43:16.558Z,4.50
2018-02-16T19:45:43.782Z,4.40
2018-02-16T19:48:09.810Z,4.40
2018-02-16T19:50:36.156Z,4.50
2018-02-16T19:53:03.153Z,4.40
2018-02-16T19:55:29.587Z,4.40
2018-02-16T19:57:55.636Z,4.40
2018-02-16T20:00:21.571Z,4.30
2018-02-16T20:02:47.526Z,4.40
2018-02-16T20:05:13.470Z,4.30
2018-02-16T20:07:39.389Z,4.30
2018-02-16T20:10:05.822Z,4.30
2018-02-16T20:12:32.496Z,4.20
2018-02-16T20:14:58.524Z,4.20
2018-02-16T20:17:24.493Z,4.20
2018-02-16T20:19:50.463Z,4.20
2018-02-16T20:22:16.411Z,4.10
2018-02-16T20:24:42.777Z,4.00
2018-02-16T20:27:08.810Z,4.10
2018-02-16T20:29:35.139Z,3.90
2018-02-16T20:32:01.210Z,3.80
2018-02-16T20:34:27.484Z,3.80
2018-02-16T20:36:53.627Z,3.80
2018-02-16T20:39:19.623Z,3.90
2018-02-16T20:41:45.942Z,3.90
2018-02-16T20:44:11.978Z,4.00
2018-02-16T20:46:38.128Z,4.00
2018-02-16T20:49:04.252Z,3.80
2018-02-16T20:51:30.690Z,3.90
2018-02-16T20:53:57.703Z,3.80
2018-02-16T20:56:23.679Z,3.80
2018-02-16T20:58:50.521Z,3.90
2018-02-16T21:01:16.517Z,3.80
2018-02-16T21:03:43.236Z,3.70
2018-02-16T21:06:09.949Z,3.70
2018-02-16T21:08:37.252Z,3.70
2018-02-16T21:11:04.479Z,3.70
2018-02-16T21:13:34.647Z,3.50
2018-02-16T21:16:01.477Z,3.50
2018-02-16T21:18:27.576Z,3.50
2018-02-16T21:20:53.552Z,3.40
2018-02-16T21:23:19.496Z,3.30
2018-02-16T21:25:45.608Z,3.30
2018-02-16T21:28:11.547Z,3.40
2018-02-16T21:30:37.572Z,3.40
2018-02-16T21:33:04.332Z,3.40
2018-02-16T21:35:30.282Z,3.40
2018-02-16T21:37:56.214Z,3.30
2018-02-16T21:40:22.928Z,3.40
2018-02-16T21:42:48.886Z,3.40
2018-02-16T21:45:14.834Z,3.30
2018-02-16T21:47:40.802Z,3.20
2018-02-16T21:50:06.740Z,3.20
2018-02-16T21:52:33.415Z,3.10
2018-02-16T21:54:59.375Z,3.10
2018-02-16T21:57:25.364Z,3.00
2018-02-16T21:59:51.358Z,3.00
2018-02-16T22:02:17.344Z,3.10
2018-02-16T22:04:43.358Z,3.00
2018-02-16T22:07:09.319Z,2.90
2018-02-16T22:09:35.231Z,2.80
2018-02-16T22:12:01.325Z,2.80
2018-02-16T22:14:27.260Z,2.90
2018-02-16T22:16:53.206Z,2.80
2018-02-16T22:19:19.250Z,2.80
2018-02-16T22:21:46.148Z,2.80
2018-02-16T22:24:12.170Z,2.80
2018-02-16T22:26:40.063Z,2.80
2018-02-16T22:29:06.045Z,2.80
2018-02-16T22:31:32.713Z,2.70
2018-02-16T22:33:59.135Z,2.70
2018-02-16T22:36:25.089Z,2.60
2018-02-16T22:38:51.172Z,2.60
2018-02-16T22:41:18.021Z,2.70
2018-02-16T22:43:44.912Z,2.90
2018-02-16T22:46:10.899Z,2.80
2018-02-16T22:48:36.889Z,2.80
2018-02-16T22:51:03.840Z,2.60
2018-02-16T22:53:30.739Z,2.60
2018-02-16T22:55:56.726Z,2.50
2018-02-16T22:58:22.675Z,2.50
2018-02-16T23:00:54.662Z,2.60
2018-02-16T23:03:21.855Z,2.70
2018-02-16T23:05:47.830Z,3.10
2018-02-16T23:08:14.564Z,2.70
2018-02-16T23:10:41.375Z,2.70
2018-02-16T23:13:07.454Z,2.60
2018-02-16T23:15:33.402Z,2.80
2018-02-16T23:17:59.398Z,2.70
2018-02-16T23:20:26.088Z,2.60
2018-02-16T23:22:52.031Z,2.50
2018-02-16T23:25:17.998Z,2.70
2018-02-16T23:27:44.082Z,2.60
2018-02-16T23:30:10.770Z,2.40
2018-02-16T23:32:36.818Z,2.30
2018-02-16T23:35:03.634Z,2.50
2018-02-16T23:37:29.628Z,2.40
2018-02-16T23:39:55.622Z,2.50
2018-02-16T23:42:21.725Z,2.30
2018-02-16T23:44:47.696Z,2.30
2018-02-16T23:47:13.720Z,2.30
2018-02-16T23:49:39.677Z,2.30
2018-02-16T23:52:06.665Z,2.20
2018-02-16T23:54:32.679Z,2.20
2018-02-16T23:56:58.640Z,2.10
2018-02-16T23:59:24.660Z,2.20
